createdAt,value
2022-10-17T00:00:45.142Z,101665.50
2022-10-17T00:03:12.006Z,101666.22
2022-10-17T00:05:47.600Z,101665.50
2022-10-17T00:08:17.029Z,101662.00
2022-10-17T00:10:43.744Z,101660.00
2022-10-17T00:13:11.292Z,101664.63
2022-10-17T00:15:38.436Z,101655.53
2022-10-17T00:18:05.318Z,101657.31
2022-10-17T00:20:35.711Z,101665.59
2022-10-17T00:23:02.439Z,101654.69
2022-10-17T00:25:29.089Z,101658.38
2022-10-17T00:27:55.843Z,101662.41
2022-10-17T00:30:22.557Z,101667.47
2022-10-17T00:32:49.363Z,101668.56
2022-10-17T00:35:16.070Z,101667.31
2022-10-17T00:37:42.790Z,101669.84
2022-10-17T00:40:10.454Z,101670.66
2022-10-17T00:42:37.168Z,101667.28
2022-10-17T00:45:15.269Z,101666.72
2022-10-17T00:47:44.712Z,101669.47
2022-10-17T00:50:12.982Z,101667.53
2022-10-17T00:52:40.991Z,101676.72
2022-10-17T00:55:16.561Z,101666.53
2022-10-17T00:57:45.298Z,101664.09
2022-10-17T01:00:13.370Z,101673.28
2022-10-17T01:02:41.775Z,101674.59
2022-10-17T01:05:09.434Z,101677.78
2022-10-17T01:07:38.083Z,101669.66
2022-10-17T01:10:06.503Z,101671.59
2022-10-17T01:12:52.429Z,101669.72
2022-10-17T01:15:26.023Z,101663.78
2022-10-17T01:18:04.154Z,101668.53
2022-10-17T01:20:49.960Z,101671.56
2022-10-17T01:23:38.235Z,101671.00
2022-10-17T01:26:37.545Z,101672.47
2022-10-17T01:29:42.552Z,101665.72
2022-10-17T01:32:22.377Z,101665.72
2022-10-17T01:35:00.171Z,101660.22
2022-10-17T01:37:44.126Z,101668.63
2022-10-17T01:40:22.808Z,101666.13
2022-10-17T01:43:17.281Z,101664.75
2022-10-17T01:46:00.710Z,101662.63
2022-10-17T01:48:35.075Z,101664.88
2022-10-17T01:51:16.954Z,101657.53
2022-10-17T01:53:52.993Z,101659.44
2022-10-17T01:56:22.788Z,101652.44
2022-10-17T01:58:55.590Z,101656.59
2022-10-17T02:01:24.723Z,101655.06
2022-10-17T02:03:53.468Z,101653.81
2022-10-17T02:06:20.948Z,101651.16
2022-10-17T02:08:50.137Z,101655.13
2022-10-17T02:11:20.245Z,101658.03
2022-10-17T02:14:05.607Z,101663.59
2022-10-17T02:16:32.919Z,101653.81
2022-10-17T02:19:24.112Z,101656.47
2022-10-17T02:22:35.404Z,101657.13
2022-10-17T02:25:24.132Z,101653.16
2022-10-17T02:28:22.510Z,101660.00
2022-10-17T02:31:06.446Z,101660.84
2022-10-17T02:33:44.334Z,101668.09
2022-10-17T02:36:24.387Z,101661.94
2022-10-17T02:38:52.722Z,101664.38
2022-10-17T02:41:21.098Z,101666.66
2022-10-17T02:43:50.556Z,101666.78
2022-10-17T02:46:23.567Z,101667.66
2022-10-17T02:48:53.259Z,101667.28
2022-10-17T02:51:26.047Z,101668.84
2022-10-17T02:54:07.053Z,101675.09
2022-10-17T02:56:46.871Z,101676.19
2022-10-17T02:59:17.821Z,101670.28
2022-10-17T03:01:44.783Z,101677.03
2022-10-17T03:04:13.990Z,101671.75
2022-10-17T03:06:42.690Z,101680.47
2022-10-17T03:09:09.567Z,101684.69
2022-10-17T03:11:36.272Z,101685.50
2022-10-17T03:14:03.022Z,101683.34
2022-10-17T03:16:29.878Z,101681.81
2022-10-17T03:18:56.654Z,101688.56
2022-10-17T03:21:23.408Z,101696.41
2022-10-17T03:23:51.299Z,101701.94
2022-10-17T03:26:21.036Z,101707.22
2022-10-17T03:28:50.650Z,101703.13
2022-10-17T03:31:20.664Z,101704.81
2022-10-17T03:33:47.817Z,101712.31
2022-10-17T03:36:17.130Z,101702.69
2022-10-17T03:38:46.381Z,101703.63
2022-10-17T03:41:13.550Z,101700.28
2022-10-17T03:43:40.721Z,101701.09
2022-10-17T03:46:08.484Z,101702.69
2022-10-17T03:48:36.310Z,101708.94
2022-10-17T03:51:09.173Z,101703.38
2022-10-17T03:53:42.027Z,101701.69
2022-10-17T03:56:14.501Z,101704.22
2022-10-17T03:58:42.257Z,101709.75
2022-10-17T04:01:12.173Z,101711.22
2022-10-17T04:03:39.506Z,101713.63
2022-10-17T04:06:06.882Z,101713.03
2022-10-17T04:08:35.681Z,101714.94
2022-10-17T04:11:13.618Z,101723.16
2022-10-17T04:13:40.870Z,101721.47
2022-10-17T04:16:12.085Z,101721.00
2022-10-17T04:18:45.635Z,101720.13
2022-10-17T04:21:13.440Z,101719.03
2022-10-17T04:23:40.343Z,101721.13
2022-10-17T04:26:16.165Z,101718.94
2022-10-17T04:28:43.088Z,101725.22
2022-10-17T04:31:13.078Z,101724.59
2022-10-17T04:33:58.580Z,101725.81
2022-10-17T04:36:25.491Z,101726.75
2022-10-17T04:38:52.360Z,101732.31
2022-10-17T04:41:20.870Z,101733.13
2022-10-17T04:43:50.964Z,101734.50
2022-10-17T04:46:19.817Z,101734.59
2022-10-17T04:48:47.133Z,101738.22
2022-10-17T04:51:17.617Z,101741.00
2022-10-17T04:54:10.469Z,101740.38
2022-10-17T04:56:39.667Z,101742.66
2022-10-17T04:59:06.471Z,101745.31
2022-10-17T05:01:34.112Z,101735.91
2022-10-17T05:04:00.761Z,101742.53
2022-10-17T05:06:30.293Z,101748.22
2022-10-17T05:09:14.113Z,101751.81
2022-10-17T05:11:43.192Z,101758.47
2022-10-17T05:14:10.554Z,101769.31
2022-10-17T05:16:38.223Z,101763.88
2022-10-17T05:19:05.171Z,101767.03
2022-10-17T05:21:38.857Z,101777.50
2022-10-17T05:24:07.393Z,101784.63
2022-10-17T05:26:34.145Z,101789.06
2022-10-17T05:29:05.488Z,101784.69
2022-10-17T05:31:36.018Z,101787.72
2022-10-17T05:34:04.512Z,101791.47
2022-10-17T05:36:33.259Z,101802.06
2022-10-17T05:39:01.425Z,101801.63
2022-10-17T05:41:28.917Z,101807.31
2022-10-17T05:43:55.672Z,101804.88
2022-10-17T05:46:35.199Z,101808.19
2022-10-17T05:49:03.596Z,101811.22
2022-10-17T05:51:34.935Z,101822.19
2022-10-17T05:54:06.445Z,101826.19
2022-10-17T05:56:35.776Z,101828.97
2022-10-17T05:59:03.052Z,101837.63
2022-10-17T06:01:50.303Z,101831.50
2022-10-17T06:04:17.370Z,101844.41
2022-10-17T06:06:44.149Z,101839.09
2022-10-17T06:09:10.920Z,101844.88
2022-10-17T06:11:41.658Z,101851.72
2022-10-17T06:14:08.760Z,101845.50
2022-10-17T06:16:37.202Z,101849.72
2022-10-17T06:19:04.164Z,101848.03
2022-10-17T06:21:34.432Z,101848.81
2022-10-17T06:24:11.656Z,101845.72
2022-10-17T06:26:40.932Z,101855.31
2022-10-17T06:29:09.123Z,101865.50
2022-10-17T06:31:41.610Z,101860.94
2022-10-17T06:34:08.288Z,101860.75
2022-10-17T06:36:35.292Z,101872.16
2022-10-17T06:39:02.412Z,101869.41
2022-10-17T06:41:51.716Z,101879.84
2022-10-17T06:44:19.793Z,101875.41
2022-10-17T06:47:04.796Z,101879.09
2022-10-17T06:49:34.311Z,101883.78
2022-10-17T06:52:17.468Z,101879.44
2022-10-17T06:55:04.858Z,101893.38
2022-10-17T06:58:00.629Z,101895.22
2022-10-17T07:00:47.244Z,101897.22
2022-10-17T07:03:14.044Z,101896.50
2022-10-17T07:05:41.903Z,101892.44
2022-10-17T07:08:08.794Z,101900.44
2022-10-17T07:10:38.604Z,101895.41
2022-10-17T07:13:07.156Z,101899.63
2022-10-17T07:15:36.919Z,101897.25
2022-10-17T07:18:04.043Z,101899.75
2022-10-17T07:20:30.735Z,101904.13
2022-10-17T07:22:57.690Z,101904.94
2022-10-17T07:25:24.674Z,101900.72
2022-10-17T07:27:56.697Z,101904.75
2022-10-17T07:30:24.375Z,101907.72
2022-10-17T07:32:56.644Z,101914.03
2022-10-17T07:35:23.395Z,101917.81
2022-10-17T07:37:50.648Z,101913.03
2022-10-17T07:40:19.725Z,101922.56
2022-10-17T07:42:47.063Z,101926.78
2022-10-17T07:45:13.817Z,101923.66
2022-10-17T07:47:42.513Z,101925.47
2022-10-17T07:50:10.241Z,101923.47
2022-10-17T07:52:36.959Z,101926.69
2022-10-17T07:55:03.835Z,101920.31
2022-10-17T07:57:30.721Z,101921.69
2022-10-17T07:59:57.367Z,101922.66
2022-10-17T08:02:25.533Z,101927.69
2022-10-17T08:04:53.362Z,101926.00
2022-10-17T08:07:25.361Z,101928.22
2022-10-17T08:09:55.224Z,101929.38
2022-10-17T08:12:22.165Z,101937.78
2022-10-17T08:14:48.861Z,101940.41
2022-10-17T08:17:15.471Z,101940.34
2022-10-17T08:19:42.220Z,101938.53
2022-10-17T08:22:08.925Z,101939.63
2022-10-17T08:24:35.707Z,101933.44
2022-10-17T08:27:02.496Z,101934.16
2022-10-17T08:29:29.283Z,101937.75
2022-10-17T08:32:00.849Z,101934.56
2022-10-17T08:34:28.216Z,101937.91
2022-10-17T08:36:55.066Z,101938.06
2022-10-17T08:39:21.743Z,101937.91
2022-10-17T08:42:13.565Z,101933.31
2022-10-17T08:45:10.824Z,101945.47
2022-10-17T08:47:47.064Z,101935.06
2022-10-17T08:50:54.375Z,101934.50
2022-10-17T08:53:43.273Z,101932.75
2022-10-17T08:56:30.333Z,101933.25
2022-10-17T08:59:10.849Z,101936.00
2022-10-17T09:02:01.809Z,101936.88
2022-10-17T09:04:37.985Z,101931.91
2022-10-17T09:07:48.409Z,101933.28
2022-10-17T09:10:25.738Z,101928.41
2022-10-17T09:13:19.389Z,101937.19
2022-10-17T09:16:09.374Z,101924.66
2022-10-17T09:18:55.274Z,101935.25
2022-10-17T09:21:40.317Z,101927.38
2022-10-17T09:24:16.108Z,101932.44
2022-10-17T09:26:45.612Z,101930.84
2022-10-17T09:29:20.496Z,101934.34
2022-10-17T09:32:02.646Z,101932.28
2022-10-17T09:34:32.829Z,101937.19
2022-10-17T09:37:01.958Z,101931.88
2022-10-17T09:39:33.130Z,101927.03
2022-10-17T09:42:01.687Z,101933.41
2022-10-17T09:44:40.979Z,101937.72
2022-10-17T09:47:32.032Z,101932.03
2022-10-17T09:49:58.754Z,101935.91
2022-10-17T09:52:30.916Z,101939.78
2022-10-17T09:55:01.235Z,101939.84
2022-10-17T09:57:28.168Z,101940.81
2022-10-17T10:00:05.178Z,101938.84
2022-10-17T10:02:40.890Z,101936.81
2022-10-17T10:05:19.997Z,101939.53
2022-10-17T10:08:03.180Z,101933.22
2022-10-17T10:10:31.870Z,101936.19
2022-10-17T10:13:20.505Z,101942.28
2022-10-17T10:15:49.834Z,101943.84
2022-10-17T10:18:35.439Z,101936.78
2022-10-17T10:21:20.329Z,101935.94
2022-10-17T10:24:09.817Z,101941.31
2022-10-17T10:26:41.170Z,101935.31
2022-10-17T10:29:22.536Z,101939.84
2022-10-17T10:31:51.519Z,101925.94
2022-10-17T10:34:25.959Z,101938.69
2022-10-17T10:37:01.073Z,101926.47
2022-10-17T10:39:52.112Z,101923.59
2022-10-17T10:42:22.478Z,101929.16
2022-10-17T10:44:50.637Z,101913.50
2022-10-17T10:47:22.149Z,101920.22
2022-10-17T10:49:52.927Z,101903.94
2022-10-17T10:52:41.494Z,101915.34
2022-10-17T10:55:44.110Z,101912.47
2022-10-17T10:58:32.892Z,101912.44
2022-10-17T11:01:05.862Z,101905.84
2022-10-17T11:03:47.796Z,101904.97
2022-10-17T11:06:25.585Z,101907.16
2022-10-17T11:09:24.739Z,101901.78
2022-10-17T11:11:59.335Z,101902.81
2022-10-17T11:14:46.979Z,101892.91
2022-10-17T11:17:39.587Z,101893.25
2022-10-17T11:20:06.283Z,101897.94
2022-10-17T11:22:40.268Z,101887.19
2022-10-17T11:25:28.763Z,101895.78
2022-10-17T11:27:55.725Z,101882.53
2022-10-17T11:30:27.018Z,101884.53
2022-10-17T11:32:58.239Z,101886.22
2022-10-17T11:35:37.336Z,101882.22
2022-10-17T11:38:42.081Z,101886.59
2022-10-17T11:41:15.137Z,101887.94
2022-10-17T11:44:06.049Z,101884.25
2022-10-17T11:46:36.029Z,101884.25
2022-10-17T11:49:16.192Z,101882.56
2022-10-17T11:52:06.709Z,101887.09
2022-10-17T11:54:35.564Z,101885.88
2022-10-17T11:57:14.068Z,101872.44
2022-10-17T12:00:16.941Z,101871.97
2022-10-17T12:03:11.498Z,101870.13
2022-10-17T12:06:00.109Z,101875.16
2022-10-17T12:08:45.109Z,101868.78
2022-10-17T12:11:28.586Z,101863.25
2022-10-17T12:13:56.899Z,101863.59
2022-10-17T12:16:23.699Z,101866.97
2022-10-17T12:19:02.422Z,101857.03
2022-10-17T12:21:55.374Z,101845.94
2022-10-17T12:24:40.156Z,101846.97
2022-10-17T12:27:29.116Z,101846.81
2022-10-17T12:30:24.535Z,101843.25
2022-10-17T12:33:06.115Z,101849.00
2022-10-17T12:35:35.453Z,101846.81
2022-10-17T12:38:03.929Z,101846.44
2022-10-17T12:40:36.582Z,101832.19
2022-10-17T12:43:29.031Z,101837.06
2022-10-17T12:45:57.938Z,101836.53
2022-10-17T12:48:34.598Z,101838.38
2022-10-17T12:51:30.847Z,101834.16
2022-10-17T12:54:13.916Z,101831.31
2022-10-17T12:56:45.234Z,101824.19
2022-10-17T12:59:29.145Z,101824.22
2022-10-17T13:02:03.512Z,101833.13
2022-10-17T13:04:31.846Z,101832.25
2022-10-17T13:07:01.081Z,101821.13
2022-10-17T13:09:35.409Z,101818.56
2022-10-17T13:12:06.413Z,101822.50
2022-10-17T13:14:34.136Z,101827.13
2022-10-17T13:17:03.360Z,101826.44
2022-10-17T13:19:45.446Z,101825.25
2022-10-17T13:22:18.689Z,101816.91
2022-10-17T13:24:46.257Z,101820.31
2022-10-17T13:27:31.551Z,101821.47
2022-10-17T13:30:01.495Z,101817.50
2022-10-17T13:32:39.749Z,101817.06
2022-10-17T13:35:16.261Z,101809.31
2022-10-17T13:37:50.343Z,101810.38
2022-10-17T13:40:44.234Z,101817.81
2022-10-17T13:43:19.508Z,101814.31
2022-10-17T13:45:55.213Z,101816.03
2022-10-17T13:48:25.425Z,101821.97
2022-10-17T13:50:56.381Z,101813.03
2022-10-17T13:53:30.608Z,101812.72
2022-10-17T13:56:29.546Z,101810.47
2022-10-17T13:59:05.085Z,101801.28
2022-10-17T14:01:32.552Z,101811.63
2022-10-17T14:04:20.087Z,101815.50
2022-10-17T14:06:49.501Z,101805.25
2022-10-17T14:09:23.174Z,101810.28
2022-10-17T14:11:58.583Z,101803.38
2022-10-17T14:14:26.659Z,101800.41
2022-10-17T14:16:54.318Z,101803.25
2022-10-17T14:19:31.031Z,101804.47
2022-10-17T14:22:18.878Z,101803.22
2022-10-17T14:24:45.972Z,101787.94
2022-10-17T14:27:31.414Z,101788.56
2022-10-17T14:30:01.008Z,101794.88
2022-10-17T14:32:30.291Z,101801.47
2022-10-17T14:35:17.852Z,101797.91
2022-10-17T14:37:48.860Z,101800.44
2022-10-17T14:40:24.090Z,101801.53
2022-10-17T14:42:53.209Z,101798.22
2022-10-17T14:45:34.687Z,101801.81
2022-10-17T14:48:11.707Z,101797.47
2022-10-17T14:50:38.833Z,101794.47
2022-10-17T14:53:07.311Z,101794.00
2022-10-17T14:55:35.549Z,101791.16
2022-10-17T14:58:15.301Z,101796.19
2022-10-17T15:00:42.070Z,101787.00
2022-10-17T15:03:08.713Z,101786.84
2022-10-17T15:05:35.614Z,101789.41
2022-10-17T15:08:02.187Z,101788.91
2022-10-17T15:10:33.841Z,101795.63
2022-10-17T15:13:26.693Z,101795.16
2022-10-17T15:15:51.928Z,101800.03
2022-10-17T15:18:18.963Z,101803.06
2022-10-17T15:20:45.643Z,101806.09
2022-10-17T15:23:12.239Z,101803.91
2022-10-17T15:25:39.441Z,101806.09
2022-10-17T15:28:06.082Z,101811.78
2022-10-17T15:30:36.355Z,101805.03
2022-10-17T15:33:03.064Z,101805.41
2022-10-17T15:35:30.325Z,101803.06
2022-10-17T15:37:56.988Z,101804.41
2022-10-17T15:40:26.516Z,101806.91
2022-10-17T15:42:53.272Z,101807.44
2022-10-17T15:45:22.301Z,101807.78
2022-10-17T15:47:54.860Z,101808.44
2022-10-17T15:50:21.978Z,101809.59
2022-10-17T15:52:52.536Z,101814.66
2022-10-17T15:55:20.076Z,101820.84
2022-10-17T15:57:48.247Z,101818.50
2022-10-17T16:00:18.060Z,101823.19
2022-10-17T16:02:45.000Z,101820.00
2022-10-17T16:05:23.501Z,101822.84
2022-10-17T16:07:50.510Z,101819.47
2022-10-17T16:10:18.167Z,101820.78
2022-10-17T16:12:45.324Z,101825.84
2022-10-17T16:15:27.946Z,101829.84
2022-10-17T16:17:56.873Z,101829.28
2022-10-17T16:20:24.960Z,101832.81
2022-10-17T16:22:54.598Z,101823.34
2022-10-17T16:25:27.053Z,101827.84
2022-10-17T16:27:56.427Z,101828.13
2022-10-17T16:30:25.257Z,101835.22
2022-10-17T16:32:52.950Z,101840.88
2022-10-17T16:35:25.428Z,101837.63
2022-10-17T16:37:52.194Z,101845.94
2022-10-17T16:40:19.443Z,101848.63
2022-10-17T16:42:46.501Z,101852.31
2022-10-17T16:45:22.250Z,101851.72
2022-10-17T16:47:49.716Z,101856.44
2022-10-17T16:50:16.722Z,101856.03
2022-10-17T16:52:43.409Z,101856.59
2022-10-17T16:55:10.199Z,101859.47
2022-10-17T16:57:37.065Z,101864.44
2022-10-17T17:00:06.265Z,101869.00
2022-10-17T17:02:33.343Z,101861.00
2022-10-17T17:05:00.313Z,101866.66
2022-10-17T17:07:29.515Z,101868.63
2022-10-17T17:09:56.656Z,101865.69
2022-10-17T17:12:23.553Z,101868.16
2022-10-17T17:14:50.184Z,101871.09
2022-10-17T17:17:30.181Z,101868.50
2022-10-17T17:20:03.947Z,101867.44
2022-10-17T17:22:30.724Z,101877.03
2022-10-17T17:24:57.467Z,101869.56
2022-10-17T17:27:25.188Z,101869.19
2022-10-17T17:29:51.881Z,101867.78
2022-10-17T17:32:18.466Z,101874.41
2022-10-17T17:34:45.319Z,101873.97
2022-10-17T17:37:11.981Z,101871.03
2022-10-17T17:39:38.687Z,101866.94
2022-10-17T17:42:05.306Z,101869.91
2022-10-17T17:44:31.970Z,101868.22
2022-10-17T17:46:58.849Z,101874.97
2022-10-17T17:49:25.502Z,101878.38
2022-10-17T17:51:52.140Z,101880.31
2022-10-17T17:54:18.791Z,101877.81
2022-10-17T17:56:45.405Z,101884.03
2022-10-17T17:59:13.456Z,101891.47
2022-10-17T18:01:40.702Z,101885.44
2022-10-17T18:04:08.797Z,101879.53
2022-10-17T18:06:37.577Z,101881.91
2022-10-17T18:09:05.551Z,101889.63
2022-10-17T18:11:32.230Z,101883.59
2022-10-17T18:14:01.447Z,101881.22
2022-10-17T18:16:29.952Z,101878.13
2022-10-17T18:18:58.797Z,101878.84
2022-10-17T18:21:27.985Z,101883.75
2022-10-17T18:23:54.618Z,101881.22
2022-10-17T18:26:21.352Z,101882.47
2022-10-17T18:28:49.523Z,101887.53
2022-10-17T18:31:36.083Z,101889.59
2022-10-17T18:34:04.540Z,101881.72
2022-10-17T18:36:32.805Z,101888.06
2022-10-17T18:39:00.466Z,101887.06
2022-10-17T18:41:28.180Z,101880.31
2022-10-17T18:43:56.643Z,101888.16
2022-10-17T18:46:27.362Z,101887.75
2022-10-17T18:48:54.311Z,101886.34
2022-10-17T18:51:23.317Z,101885.88
2022-10-17T18:53:52.983Z,101883.91
2022-10-17T18:56:20.578Z,101883.44
2022-10-17T18:58:47.662Z,101880.03
2022-10-17T19:01:17.670Z,101884.41
2022-10-17T19:03:46.487Z,101882.31
2022-10-17T19:06:16.195Z,101879.44
2022-10-17T19:08:43.735Z,101882.25
2022-10-17T19:11:15.439Z,101884.19
2022-10-17T19:13:43.301Z,101880.13
2022-10-17T19:16:22.733Z,101879.41
2022-10-17T19:18:55.458Z,101882.31
2022-10-17T19:21:22.554Z,101881.31
2022-10-17T19:23:51.304Z,101879.28
2022-10-17T19:26:18.736Z,101880.13
2022-10-17T19:28:45.661Z,101886.84
2022-10-17T19:31:16.827Z,101881.38
2022-10-17T19:33:44.863Z,101881.28
2022-10-17T19:36:12.768Z,101885.47
2022-10-17T19:38:39.743Z,101891.09
2022-10-17T19:41:08.086Z,101890.09
2022-10-17T19:43:39.775Z,101886.19
2022-10-17T19:46:09.465Z,101882.81
2022-10-17T19:48:37.094Z,101882.81
2022-10-17T19:51:08.490Z,101890.81
2022-10-17T19:53:35.282Z,101887.16
2022-10-17T19:56:01.968Z,101887.72
2022-10-17T19:58:28.720Z,101881.25
2022-10-17T20:00:57.666Z,101882.63
2022-10-17T20:03:25.243Z,101885.31
2022-10-17T20:05:52.054Z,101890.19
2022-10-17T20:08:19.179Z,101891.63
2022-10-17T20:10:46.258Z,101897.28
2022-10-17T20:13:14.008Z,101892.59
2022-10-17T20:15:41.171Z,101891.06
2022-10-17T20:18:08.108Z,101894.66
2022-10-17T20:20:36.084Z,101893.38
2022-10-17T20:23:03.550Z,101890.53
2022-10-17T20:25:30.590Z,101893.94
2022-10-17T20:27:57.329Z,101893.19
2022-10-17T20:30:23.987Z,101894.47
2022-10-17T20:32:55.137Z,101896.09
2022-10-17T20:35:22.365Z,101892.28
2022-10-17T20:37:49.038Z,101895.63
2022-10-17T20:43:07.042Z,101888.00
2022-10-17T20:45:51.516Z,101879.88
2022-10-17T20:48:18.885Z,101882.75
2022-10-17T20:50:46.042Z,101886.53
2022-10-17T20:56:05.324Z,101885.03
2022-10-17T20:58:32.230Z,101885.63
2022-10-17T21:00:58.853Z,101885.91
2022-10-17T21:03:26.738Z,101883.53
2022-10-17T21:05:53.554Z,101883.34
2022-10-17T21:08:20.470Z,101890.28
2022-10-17T21:10:47.116Z,101880.31
2022-10-17T21:13:14.282Z,101881.00
2022-10-17T21:15:40.915Z,101879.97
2022-10-17T21:18:07.577Z,101878.41
2022-10-17T21:20:34.390Z,101887.28
2022-10-17T21:23:01.016Z,101891.03
2022-10-17T21:25:27.668Z,101883.00
2022-10-17T21:27:54.311Z,101884.69
2022-10-17T21:30:21.701Z,101881.00
2022-10-17T21:32:52.128Z,101878.69
2022-10-17T21:35:18.968Z,101878.34
2022-10-17T21:37:45.568Z,101885.66
2022-10-17T21:40:12.749Z,101886.78
2022-10-17T21:42:39.461Z,101883.16
2022-10-17T21:45:14.989Z,101881.97
2022-10-17T21:47:54.977Z,101879.59
2022-10-17T21:50:29.829Z,101881.50
2022-10-17T21:52:58.510Z,101883.81
2022-10-17T21:55:25.278Z,101880.16
2022-10-17T21:57:52.008Z,101883.56
2022-10-17T22:00:18.802Z,101885.94
2022-10-17T22:02:45.637Z,101871.44
2022-10-17T22:05:12.378Z,101879.03
2022-10-17T22:07:39.135Z,101881.31
2022-10-17T22:10:05.999Z,101878.41
2022-10-17T22:12:33.060Z,101876.25
2022-10-17T22:14:59.950Z,101876.03
2022-10-17T22:17:26.648Z,101869.16
2022-10-17T22:19:53.321Z,101869.88
2022-10-17T22:22:19.954Z,101865.63
2022-10-17T22:24:46.646Z,101865.03
2022-10-17T22:27:13.289Z,101860.66
2022-10-17T22:29:40.047Z,101861.13
2022-10-17T22:32:06.690Z,101859.03
2022-10-17T22:34:33.314Z,101862.56
2022-10-17T22:36:59.949Z,101851.06
2022-10-17T22:39:26.650Z,101856.16
2022-10-17T22:41:53.286Z,101848.88
2022-10-17T22:44:20.007Z,101842.84
2022-10-17T22:46:46.682Z,101852.31
2022-10-17T22:49:13.458Z,101849.47
2022-10-17T22:51:40.137Z,101849.72
2022-10-17T22:54:07.115Z,101855.66
2022-10-17T22:56:33.787Z,101853.25
2022-10-17T22:59:00.695Z,101849.47
2022-10-17T23:01:27.348Z,101849.09
2022-10-17T23:03:54.215Z,101849.94
2022-10-17T23:06:21.360Z,101844.28
2022-10-17T23:08:48.908Z,101845.66
2022-10-17T23:11:16.050Z,101837.59
2022-10-17T23:13:42.759Z,101840.28
2022-10-17T23:16:09.721Z,101842.63
2022-10-17T23:18:37.955Z,101843.56
2022-10-17T23:21:05.132Z,101832.34
2022-10-17T23:23:31.832Z,101834.28
2022-10-17T23:26:10.526Z,101833.81
2022-10-17T23:28:37.867Z,101840.00
2022-10-17T23:31:13.731Z,101843.88
2022-10-17T23:33:41.515Z,101837.84
2022-10-17T23:36:10.573Z,101833.75
2022-10-17T23:38:37.840Z,101837.38
2022-10-17T23:41:04.658Z,101829.75
2022-10-17T23:43:31.947Z,101828.53
2022-10-17T23:45:58.550Z,101825.16
2022-10-17T23:48:25.272Z,101826.69
2022-10-17T23:50:52.048Z,101834.03
2022-10-17T23:53:18.738Z,101828.00
2022-10-17T23:55:45.470Z,101829.84
2022-10-17T23:58:12.129Z,101821.06
